createdAt,value
2023-03-23T15:59:10.922Z,20.44
2023-03-23T16:01:40.254Z,20.44
2023-03-23T16:04:14.953Z,20.45
2023-03-23T16:06:41.991Z,20.46
2023-03-23T16:09:13.357Z,20.43
2023-03-23T16:11:39.969Z,20.40
2023-03-23T16:14:06.704Z,20.36
2023-03-23T16:16:39.221Z,20.32
2023-03-23T16:19:06.721Z,20.30
2023-03-23T16:21:33.846Z,20.28
2023-03-23T16:24:00.874Z,20.28
2023-03-23T16:26:27.620Z,20.23
2023-03-23T16:29:00.065Z,20.19
2023-03-23T16:31:36.771Z,20.13
2023-03-23T16:34:03.365Z,20.07
2023-03-23T16:36:29.996Z,20.02
2023-03-23T16:38:56.575Z,19.96
2023-03-23T16:41:23.157Z,19.92
2023-03-23T16:43:49.728Z,19.88
2023-03-23T16:46:16.412Z,19.84
2023-03-23T16:48:43.789Z,19.77
2023-03-23T16:51:10.433Z,19.72
2023-03-23T16:53:37.698Z,19.67
2023-03-23T16:56:05.216Z,19.61
2023-03-23T16:58:32.129Z,19.56
2023-03-23T17:00:58.708Z,19.50
2023-03-23T17:03:25.616Z,19.44
2023-03-23T17:05:53.068Z,19.37
2023-03-23T17:08:21.206Z,19.33
2023-03-23T17:10:48.770Z,19.28
2023-03-23T17:13:15.455Z,19.24
2023-03-23T17:15:46.075Z,19.19
2023-03-23T17:18:15.079Z,19.14
2023-03-23T17:20:42.606Z,19.06
2023-03-23T17:23:09.174Z,18.96
2023-03-23T17:25:35.880Z,18.88
2023-03-23T17:28:06.792Z,18.80
2023-03-23T17:30:34.829Z,18.71
2023-03-23T17:33:01.730Z,18.62
2023-03-23T17:35:28.495Z,18.53
2023-03-23T17:37:55.538Z,18.43
2023-03-23T17:40:22.239Z,18.34
2023-03-23T17:42:49.091Z,18.26
2023-03-23T17:45:15.901Z,18.17
2023-03-23T17:47:42.547Z,18.07
2023-03-23T17:50:11.899Z,17.97
2023-03-23T17:52:43.539Z,17.84
2023-03-23T17:55:11.125Z,17.74
2023-03-23T17:57:37.930Z,17.66
2023-03-23T18:00:08.643Z,17.57
2023-03-23T18:02:37.123Z,17.49
2023-03-23T18:05:04.662Z,17.40
2023-03-23T18:07:31.449Z,17.32
2023-03-23T18:10:01.486Z,17.26
2023-03-23T18:12:28.540Z,17.19
2023-03-23T18:14:58.857Z,17.13
2023-03-23T18:17:26.471Z,17.08
2023-03-23T18:19:53.270Z,17.03
2023-03-23T18:22:19.975Z,17.01
2023-03-23T18:24:47.533Z,16.99
2023-03-23T18:27:14.662Z,16.97
2023-03-23T18:29:41.741Z,16.94
2023-03-23T18:32:09.068Z,16.91
2023-03-23T18:34:36.964Z,16.90
2023-03-23T18:37:04.484Z,16.88
2023-03-23T18:39:34.226Z,16.89
2023-03-23T18:42:01.451Z,16.88
2023-03-23T18:44:28.211Z,16.88
2023-03-23T18:46:54.784Z,16.86
2023-03-23T18:49:21.545Z,16.85
2023-03-23T18:51:48.380Z,16.84
2023-03-23T18:54:15.143Z,16.87
2023-03-23T18:56:41.823Z,16.89
2023-03-23T18:59:08.759Z,16.91
2023-03-23T19:01:35.903Z,16.94
2023-03-23T19:04:06.332Z,16.96
2023-03-23T19:06:35.172Z,16.96
2023-03-23T19:09:02.383Z,16.95
2023-03-23T19:11:29.065Z,16.94
2023-03-23T19:14:02.314Z,16.93
2023-03-23T19:16:36.063Z,16.93
2023-03-23T19:19:04.972Z,16.94
2023-03-23T19:21:32.663Z,16.95
2023-03-23T19:24:00.896Z,16.95
2023-03-23T19:26:32.540Z,16.95
2023-03-23T19:29:23.335Z,16.94
2023-03-23T19:31:47.904Z,16.91
2023-03-23T19:34:16.756Z,16.89
2023-03-23T19:36:54.248Z,16.89
2023-03-23T19:39:26.283Z,16.89
2023-03-23T19:41:53.113Z,16.88
2023-03-23T19:44:19.772Z,16.88
2023-03-23T19:46:48.146Z,16.87
2023-03-23T19:49:15.182Z,16.86
2023-03-23T19:51:41.785Z,16.87
2023-03-23T19:54:08.864Z,16.84
2023-03-23T19:56:36.219Z,16.84
2023-03-23T19:59:04.654Z,16.82
2023-03-23T20:01:32.840Z,16.80
2023-03-23T20:04:01.888Z,16.79
2023-03-23T20:06:29.580Z,16.78
2023-03-23T20:09:00.098Z,16.76
2023-03-23T20:11:28.712Z,16.77
2023-03-23T20:13:56.308Z,16.75
2023-03-23T20:16:23.771Z,16.74
2023-03-23T20:18:50.779Z,16.73
2023-03-23T20:21:22.965Z,16.72
2023-03-23T20:23:57.091Z,16.71
2023-03-23T20:26:31.082Z,16.70
2023-03-23T20:28:58.012Z,16.67
2023-03-23T20:31:36.522Z,16.67
2023-03-23T20:34:08.668Z,16.67
2023-03-23T20:36:40.397Z,16.65
2023-03-23T20:39:10.769Z,16.62
2023-03-23T20:41:38.927Z,16.60
2023-03-23T20:44:08.302Z,16.59
2023-03-23T20:46:35.742Z,16.58
2023-03-23T20:49:02.879Z,16.55
2023-03-23T20:51:29.768Z,16.52
2023-03-23T20:53:56.423Z,16.52
2023-03-23T20:56:24.544Z,16.51
2023-03-23T20:58:51.953Z,16.50
2023-03-23T21:01:18.745Z,16.48
2023-03-23T21:03:45.719Z,16.48
2023-03-23T21:06:12.498Z,16.47
2023-03-23T21:08:40.995Z,16.44
2023-03-23T21:11:09.926Z,16.43
2023-03-23T21:13:36.780Z,16.42
2023-03-23T21:16:05.187Z,16.40
2023-03-23T21:18:31.979Z,16.38
2023-03-23T21:21:00.530Z,16.35
2023-03-23T21:23:29.695Z,16.34
2023-03-23T21:26:06.130Z,16.32
2023-03-23T21:28:32.800Z,16.32
2023-03-23T21:31:05.020Z,16.31
2023-03-23T21:33:32.217Z,16.29
2023-03-23T21:36:00.457Z,16.29
2023-03-23T21:38:28.494Z,16.28
2023-03-23T21:40:59.208Z,16.27
2023-03-23T21:43:27.820Z,16.24
2023-03-23T21:45:57.022Z,16.21
2023-03-23T21:48:26.536Z,16.19
2023-03-23T21:50:53.798Z,16.17
2023-03-23T21:53:20.868Z,16.14
2023-03-23T21:55:52.571Z,16.09
2023-03-23T21:58:22.026Z,16.03
2023-03-23T22:00:50.310Z,15.96
2023-03-23T22:03:18.882Z,15.88
2023-03-23T22:05:46.309Z,15.83
2023-03-23T22:08:13.423Z,15.78
2023-03-23T22:10:41.951Z,15.75
2023-03-23T22:13:09.001Z,15.70
2023-03-23T22:15:36.228Z,15.68
2023-03-23T22:18:03.106Z,15.66
2023-03-23T22:20:30.939Z,15.65
2023-03-23T22:22:57.686Z,15.65
2023-03-23T22:25:24.370Z,15.67
2023-03-23T22:27:52.463Z,15.68
2023-03-23T22:30:19.176Z,15.68
2023-03-23T22:32:45.894Z,15.66
2023-03-23T22:35:12.672Z,15.68
2023-03-23T22:37:39.383Z,15.69
2023-03-23T22:40:10.396Z,15.71
2023-03-23T22:42:37.136Z,15.74
2023-03-23T22:45:04.446Z,15.75
2023-03-23T22:47:31.586Z,15.78
2023-03-23T22:49:58.282Z,15.78
2023-03-23T22:52:24.966Z,15.80
2023-03-23T22:54:51.730Z,15.80
2023-03-23T22:57:18.649Z,15.80
2023-03-23T22:59:49.106Z,15.79
2023-03-23T23:02:15.795Z,15.80
2023-03-23T23:04:43.072Z,15.81
2023-03-23T23:07:14.455Z,15.81
2023-03-23T23:09:42.782Z,15.83
2023-03-23T23:12:10.936Z,15.84
2023-03-23T23:14:38.955Z,15.83
2023-03-23T23:17:06.054Z,15.69
2023-03-23T23:19:32.788Z,15.51
2023-03-23T23:22:09.270Z,15.41
2023-03-23T23:24:43.642Z,15.38
2023-03-23T23:27:10.355Z,15.35
2023-03-23T23:29:37.060Z,15.30
2023-03-23T23:32:04.189Z,15.19
2023-03-23T23:34:30.982Z,15.13
2023-03-23T23:36:59.666Z,15.10
2023-03-23T23:39:27.646Z,15.07
2023-03-23T23:41:55.617Z,14.91
2023-03-23T23:44:22.971Z,14.79
2023-03-23T23:46:49.628Z,14.71
2023-03-23T23:49:16.428Z,14.69
2023-03-23T23:51:44.674Z,14.68
2023-03-23T23:54:14.684Z,14.63
2023-03-23T23:56:41.451Z,14.54
2023-03-23T23:59:08.172Z,14.48
